Time;durP1;ratioP1;P1;durP2;ratioP2;P2;SDS_P1;SDS_P2;PMS_P1;PMS_P2;Temp;Humidity;BMP_temperature;BMP_pressure;BME280_temperature;BME280_humidity;BME280_pressure;Samples;Min_cycle;Max_cycle;Signal;HPM_P1;HPM_P2
2021/05/06 00:33:49;;;;;;;8.77;5.85;;;;;;;;;;5065520;28;20040;-62
2021/05/06 00:36:15;;;;;;;12.00;7.70;;;;;;;;;;5093945;28;20465;-62
2021/05/06 00:38:47;;;;;;;10.38;6.22;;;;;;;;;;5094979;28;20024;-62
2021/05/06 00:55:07;;;;;;;7.53;5.35;;;;;;;;;;5095074;28;20082;-64
2021/05/06 01:05:17;;;;;;;8.27;4.93;;;;;;;;;;5092550;28;20028;-65
2021/05/06 01:08:20;;;;;;;7.68;5.00;;;;;;;;;;5094449;28;20446;-64
2021/05/06 01:11:00;;;;;;;7.30;4.15;;;;;;;;;;5088986;28;20355;-64
2021/05/06 01:13:29;;;;;;;7.03;4.50;;;;;;;;;;5093291;28;20027;-64
2021/05/06 01:15:54;;;;;;;9.38;5.10;;;;;;;;;;5093088;28;20069;-64
2021/05/06 01:18:20;;;;;;;14.20;7.03;;;;;;;;;;5094169;28;20367;-62
2021/05/06 01:20:49;;;;;;;15.35;7.43;;;;;;;;;;5091862;28;20066;-62
2021/05/06 01:23:16;;;;;;;12.57;7.05;;;;;;;;;;5092815;28;20039;-62
2021/05/06 01:25:47;;;;;;;10.57;6.05;;;;;;;;;;5094219;28;20569;-62
2021/05/06 01:28:15;;;;;;;9.63;5.82;;;;;;;;;;5092677;28;20028;-62
2021/05/06 01:30:45;;;;;;;11.20;5.55;;;;;;;;;;5092725;28;20047;-62
2021/05/06 01:33:49;;;;;;;10.85;6.10;;;;;;;;;;5094032;28;20119;-62
2021/05/06 01:36:16;;;;;;;11.38;5.88;;;;;;;;;;5088679;28;20097;-64
2021/05/06 02:00:13;;;;;;;9.38;4.95;;;;;;;;;;5092374;28;20028;-64
2021/05/06 02:02:40;;;;;;;8.90;5.30;;;;;;;;;;5093704;28;20040;-64
2021/05/06 02:05:06;;;;;;;6.47;4.68;;;;;;;;;;5092130;28;20031;-62
2021/05/06 02:07:35;;;;;;;5.97;4.40;;;;;;;;;;5093501;28;20021;-62
2021/05/06 02:10:01;;;;;;;6.05;4.95;;;;;;;;;;5091958;28;20024;-62
2021/05/06 02:12:26;;;;;;;6.30;4.32;;;;;;;;;;5092210;28;20038;-62
2021/05/06 02:15:02;;;;;;;5.53;4.07;;;;;;;;;;5093328;28;20008;-62
2021/05/06 02:17:28;;;;;;;6.25;4.22;;;;;;;;;;5091962;28;20016;-63
2021/05/06 02:19:55;;;;;;;5.65;4.13;;;;;;;;;;5092290;28;20077;-62
2021/05/06 02:22:21;;;;;;;6.30;4.30;;;;;;;;;;5093159;28;20036;-62
2021/05/06 02:24:50;;;;;;;6.47;4.28;;;;;;;;;;5093461;28;20024;-65
2021/05/06 02:27:15;;;;;;;5.35;3.80;;;;;;;;;;5093387;28;20032;-65
2021/05/06 02:29:41;;;;;;;6.03;4.20;;;;;;;;;;5093250;28;20031;-65
2021/05/06 02:32:06;;;;;;;6.95;4.53;;;;;;;;;;5096136;28;20024;-65
2021/05/06 02:34:32;;;;;;;6.50;4.20;;;;;;;;;;5095812;28;20099;-62
2021/05/06 02:36:58;;;;;;;7.38;4.18;;;;;;;;;;5095934;28;20120;-63
2021/05/06 02:39:23;;;;;;;5.90;3.72;;;;;;;;;;5095936;28;20023;-63
2021/05/06 02:41:49;;;;;;;4.82;3.65;;;;;;;;;;5095847;28;20023;-63
2021/05/06 02:44:14;;;;;;;8.93;3.95;;;;;;;;;;5096528;28;20039;-63
2021/05/06 02:46:40;;;;;;;6.05;3.80;;;;;;;;;;5095865;28;20458;-62
2021/05/06 02:49:06;;;;;;;4.70;3.92;;;;;;;;;;5097084;28;20070;-62
2021/05/06 02:51:38;;;;;;;5.35;3.83;;;;;;;;;;5095367;28;20549;-62
2021/05/06 02:54:04;;;;;;;5.32;3.72;;;;;;;;;;5097284;28;20032;-62
2021/05/06 02:59:11;;;;;;;4.90;3.67;;;;;;;;;;5097051;28;20028;-63
2021/05/06 03:04:20;;;;;;;4.28;3.20;;;;;;;;;;5096973;28;20103;-64
2021/05/06 03:06:53;;;;;;;5.10;3.58;;;;;;;;;;5096844;28;20111;-65
2021/05/06 03:14:41;;;;;;;4.43;3.40;;;;;;;;;;5096412;28;20024;-64
2021/05/06 03:22:49;;;;;;;6.90;3.10;;;;;;;;;;5096372;28;20032;-64
2021/05/06 03:25:19;;;;;;;3.80;3.10;;;;;;;;;;5096389;28;20036;-65
2021/05/06 03:43:51;;;;;;;3.67;3.22;;;;;;;;;;5094558;28;20052;-62
2021/05/06 03:46:45;;;;;;;2.95;2.63;;;;;;;;;;5096086;28;20107;-65
2021/05/06 04:37:31;;;;;;;3.25;2.58;;;;;;;;;;5094933;28;20521;-62
2021/05/06 04:40:04;;;;;;;3.70;3.22;;;;;;;;;;5095002;28;20031;-62
2021/05/06 04:43:08;;;;;;;2.80;2.60;;;;;;;;;;5094715;28;20068;-62
2021/05/06 05:06:39;;;;;;;3.08;2.72;;;;;;;;;;5093053;28;20089;-62
2021/05/06 05:27:07;;;;;;;2.53;2.33;;;;;;;;;;5094042;28;20039;-61
2021/05/06 05:29:32;;;;;;;1.15;0.95;;;;;;;;;;5094239;28;20065;-61
2021/05/06 05:31:58;;;;;;;0.45;0.45;;;;;;;;;;5093890;28;20012;-61
2021/05/06 05:36:55;;;;;;;2.75;2.08;;;;;;;;;;5093435;28;20020;-63
2021/05/06 05:39:35;;;;;;;3.17;2.30;;;;;;;;;;5093831;28;20027;-63
2021/05/06 05:55:28;;;;;;;2.35;2.15;;;;;;;;;;5092093;28;20058;-63
2021/05/06 05:57:54;;;;;;;3.30;2.05;;;;;;;;;;5091929;28;20012;-63
2021/05/06 06:00:19;;;;;;;2.70;1.98;;;;;;;;;;5092036;28;20032;-63
2021/05/06 06:02:45;;;;;;;1.05;1.02;;;;;;;;;;5092023;28;20023;-63
2021/05/06 06:05:11;;;;;;;2.10;1.73;;;;;;;;;;5092826;28;20028;-63
2021/05/06 06:07:37;;;;;;;5.43;1.77;;;;;;;;;;5092997;28;20180;-63
2021/05/06 06:10:03;;;;;;;1.92;1.75;;;;;;;;;;5093071;28;20023;-63
2021/05/06 06:12:28;;;;;;;2.03;1.60;;;;;;;;;;5093093;28;20019;-63
2021/05/06 06:15:07;;;;;;;2.78;1.85;;;;;;;;;;5093169;28;20024;-63
2021/05/06 06:17:41;;;;;;;1.65;1.55;;;;;;;;;;5093230;28;20028;-63
2021/05/06 06:20:07;;;;;;;1.83;1.42;;;;;;;;;;5093140;28;20062;-63
2021/05/06 06:22:32;;;;;;;3.30;2.03;;;;;;;;;;5093131;28;20529;-63
2021/05/06 06:25:01;;;;;;;1.77;1.30;;;;;;;;;;5093242;28;20036;-62
2021/05/06 06:27:26;;;;;;;1.77;1.17;;;;;;;;;;5093147;28;20020;-62
2021/05/06 06:29:52;;;;;;;3.78;1.20;;;;;;;;;;5092818;28;20032;-62
2021/05/06 06:32:18;;;;;;;1.60;1.23;;;;;;;;;;5092477;28;20036;-62
2021/05/06 06:34:43;;;;;;;1.95;1.27;;;;;;;;;;5091731;28;20023;-62
2021/05/06 06:37:09;;;;;;;1.60;1.48;;;;;;;;;;5091593;28;20476;-62
2021/05/06 06:39:39;;;;;;;2.17;1.15;;;;;;;;;;5093060;28;20028;-62
2021/05/06 06:42:07;;;;;;;2.10;1.67;;;;;;;;;;5092952;28;20012;-62
2021/05/06 06:44:34;;;;;;;3.78;1.80;;;;;;;;;;5092502;28;20043;-62
2021/05/06 06:47:06;;;;;;;2.03;1.88;;;;;;;;;;5093014;28;20024;-62
2021/05/06 06:49:32;;;;;;;2.75;1.85;;;;;;;;;;5092790;28;20398;-62
2021/05/06 06:51:57;;;;;;;2.35;2.13;;;;;;;;;;5092850;28;20016;-62
2021/05/06 06:54:24;;;;;;;1.65;1.55;;;;;;;;;;5091557;28;20067;-62
2021/05/06 06:56:50;;;;;;;1.55;1.40;;;;;;;;;;5091528;28;20016;-62
2021/05/06 06:59:16;;;;;;;1.50;1.40;;;;;;;;;;5092659;28;20025;-62
2021/05/06 07:01:41;;;;;;;2.78;1.80;;;;;;;;;;5092657;28;20020;-62
2021/05/06 07:04:06;;;;;;;1.75;1.42;;;;;;;;;;5092791;28;20385;-62
2021/05/06 07:06:32;;;;;;;1.85;1.40;;;;;;;;;;5092722;28;20024;-62
2021/05/06 07:08:58;;;;;;;2.45;1.67;;;;;;;;;;5092593;28;20028;-62
2021/05/06 07:11:23;;;;;;;1.70;1.60;;;;;;;;;;5092657;28;20032;-62
2021/05/06 07:13:49;;;;;;;2.97;1.40;;;;;;;;;;5091224;28;20027;-62
2021/05/06 07:16:14;;;;;;;2.08;1.15;;;;;;;;;;5092523;28;20016;-62
2021/05/06 07:18:39;;;;;;;1.40;1.13;;;;;;;;;;5094476;28;20382;-62
2021/05/06 07:21:06;;;;;;;1.55;1.35;;;;;;;;;;5094913;28;20028;-62
2021/05/06 07:23:34;;;;;;;2.42;1.60;;;;;;;;;;5096050;28;20028;-62
2021/05/06 07:25:59;;;;;;;2.60;1.38;;;;;;;;;;5096074;28;20044;-62
2021/05/06 07:28:38;;;;;;;1.52;1.20;;;;;;;;;;5095809;28;20531;-62
2021/05/06 07:31:05;;;;;;;2.10;1.33;;;;;;;;;;5095794;28;20059;-62
2021/05/06 07:33:31;;;;;;;2.03;1.52;;;;;;;;;;5096013;28;20016;-62
2021/05/06 07:35:57;;;;;;;1.88;1.33;;;;;;;;;;5095866;28;20078;-62
2021/05/06 07:38:24;;;;;;;2.25;1.45;;;;;;;;;;5095756;28;20020;-62
2021/05/06 07:40:49;;;;;;;1.48;1.10;;;;;;;;;;5095735;28;20398;-62
2021/05/06 07:43:15;;;;;;;1.48;1.17;;;;;;;;;;5095294;28;20043;-63
2021/05/06 07:45:41;;;;;;;1.58;1.30;;;;;;;;;;5095779;28;20066;-62
2021/05/06 07:48:06;;;;;;;1.40;1.30;;;;;;;;;;5095577;28;20036;-62
2021/05/06 07:50:32;;;;;;;3.47;1.17;;;;;;;;;;5094223;28;20032;-62
2021/05/06 07:53:08;;;;;;;1.40;1.30;;;;;;;;;;5095536;28;20008;-62
2021/05/06 07:55:35;;;;;;;1.67;1.27;;;;;;;;;;5095443;28;20024;-62
2021/05/06 07:58:01;;;;;;;1.60;1.15;;;;;;;;;;5095466;28;20099;-62
2021/05/06 08:00:26;;;;;;;1.90;1.35;;;;;;;;;;5095346;28;20524;-62
2021/05/06 08:02:53;;;;;;;2.13;1.40;;;;;;;;;;5095458;28;20027;-63
2021/05/06 08:05:19;;;;;;;2.78;1.23;;;;;;;;;;5095295;28;20031;-62
2021/05/06 08:07:44;;;;;;;2.10;1.30;;;;;;;;;;5095194;28;20020;-62
2021/05/06 08:10:10;;;;;;;1.92;1.20;;;;;;;;;;5095083;28;20024;-62
2021/05/06 08:12:36;;;;;;;2.00;1.60;;;;;;;;;;5095134;28;20053;-62
2021/05/06 08:15:06;;;;;;;1.75;1.02;;;;;;;;;;5094978;28;20066;-62
2021/05/06 08:17:32;;;;;;;1.17;1.05;;;;;;;;;;5095131;28;20039;-62
2021/05/06 08:19:57;;;;;;;1.25;1.00;;;;;;;;;;5095054;28;20024;-62
2021/05/06 08:22:24;;;;;;;3.22;1.48;;;;;;;;;;5093527;28;20032;-62
2021/05/06 08:24:50;;;;;;;2.15;1.30;;;;;;;;;;5093740;28;20027;-62
2021/05/06 08:27:16;;;;;;;1.45;1.35;;;;;;;;;;5094906;28;20129;-62
2021/05/06 08:29:41;;;;;;;2.50;1.70;;;;;;;;;;5092939;28;20114;-62
2021/05/06 08:32:07;;;;;;;2.15;1.35;;;;;;;;;;5094782;28;20152;-62
2021/05/06 08:34:32;;;;;;;2.17;1.20;;;;;;;;;;5094588;28;20044;-62
2021/05/06 08:36:58;;;;;;;2.88;1.10;;;;;;;;;;5094628;28;20028;-62
2021/05/06 08:39:23;;;;;;;1.90;1.30;;;;;;;;;;5093313;28;20027;-62
2021/05/06 08:41:50;;;;;;;1.10;1.00;;;;;;;;;;5094509;28;20102;-62
2021/05/06 08:44:18;;;;;;;2.92;1.33;;;;;;;;;;5093953;28;20044;-62
2021/05/06 08:47:02;;;;;;;2.03;1.30;;;;;;;;;;5093357;28;20024;-62
2021/05/06 08:49:28;;;;;;;2.15;1.30;;;;;;;;;;5094656;28;20024;-62
2021/05/06 08:51:53;;;;;;;1.33;0.85;;;;;;;;;;5094491;28;20028;-62
2021/05/06 08:54:19;;;;;;;3.08;1.08;;;;;;;;;;5094274;28;20028;-62
2021/05/06 08:56:45;;;;;;;1.45;1.10;;;;;;;;;;5094245;28;20024;-62
2021/05/06 08:59:10;;;;;;;1.13;0.70;;;;;;;;;;5094262;28;20103;-62
2021/05/06 09:01:36;;;;;;;1.42;0.93;;;;;;;;;;5092897;28;20110;-62
2021/05/06 09:04:01;;;;;;;1.38;0.95;;;;;;;;;;5094092;28;20027;-62
2021/05/06 09:06:27;;;;;;;1.52;1.17;;;;;;;;;;5094045;28;20031;-62
2021/05/06 09:09:04;;;;;;;1.13;1.00;;;;;;;;;;5093936;28;20028;-62
2021/05/06 09:11:39;;;;;;;2.05;1.05;;;;;;;;;;5093946;28;20078;-62
2021/05/06 09:14:05;;;;;;;1.38;1.13;;;;;;;;;;5094051;28;20070;-62
2021/05/06 09:16:37;;;;;;;1.08;0.75;;;;;;;;;;5093996;28;20044;-62
2021/05/06 09:19:04;;;;;;;1.25;1.15;;;;;;;;;;5093886;28;20020;-62
2021/05/06 09:21:30;;;;;;;1.83;0.98;;;;;;;;;;5093947;28;20012;-62
2021/05/06 09:24:06;;;;;;;1.63;1.17;;;;;;;;;;5093838;28;20031;-62
2021/05/06 09:26:32;;;;;;;2.25;0.95;;;;;;;;;;5093803;28;20028;-62
2021/05/06 09:28:57;;;;;;;1.80;1.45;;;;;;;;;;5093816;28;20459;-62
2021/05/06 09:31:23;;;;;;;1.20;1.02;;;;;;;;;;5092500;28;20036;-62
2021/05/06 09:33:51;;;;;;;0.80;0.80;;;;;;;;;;5093600;28;20020;-62
2021/05/06 09:36:18;;;;;;;1.15;0.85;;;;;;;;;;5093567;28;20031;-62
2021/05/06 09:38:49;;;;;;;1.25;1.15;;;;;;;;;;5093522;28;20020;-62
2021/05/06 09:41:19;;;;;;;0.98;0.95;;;;;;;;;;5092813;28;20433;-62
2021/05/06 09:43:44;;;;;;;1.10;1.00;;;;;;;;;;5092940;28;20094;-62
2021/05/06 09:46:30;;;;;;;2.38;1.02;;;;;;;;;;5092306;28;20032;-62
2021/05/06 09:48:56;;;;;;;1.30;1.20;;;;;;;;;;5093385;28;20032;-60
2021/05/06 09:51:48;;;;;;;1.15;0.82;;;;;;;;;;5093313;28;20035;-62
2021/05/06 09:54:15;;;;;;;1.45;0.43;;;;;;;;;;5089301;28;20068;-62
2021/05/06 09:56:42;;;;;;;2.22;1.05;;;;;;;;;;5092110;28;20044;-62
2021/05/06 09:59:08;;;;;;;0.98;0.68;;;;;;;;;;5093389;28;20047;-62
2021/05/06 10:01:38;;;;;;;1.48;0.73;;;;;;;;;;5093444;28;20377;-62
2021/05/06 10:04:13;;;;;;;2.80;0.90;;;;;;;;;;5092244;28;20067;-62
2021/05/06 10:06:38;;;;;;;1.05;0.75;;;;;;;;;;5093260;28;20020;-62
2021/05/06 10:09:04;;;;;;;0.68;0.68;;;;;;;;;;5091848;28;20018;-62
2021/05/06 10:11:29;;;;;;;0.50;0.50;;;;;;;;;;5092660;28;20040;-62
2021/05/06 10:13:57;;;;;;;0.80;0.73;;;;;;;;;;5093154;28;20458;-62
2021/05/06 10:16:22;;;;;;;1.52;1.00;;;;;;;;;;5093264;28;20043;-62
2021/05/06 10:18:48;;;;;;;0.75;0.65;;;;;;;;;;5093152;28;20107;-62
2021/05/06 10:21:15;;;;;;;0.60;0.60;;;;;;;;;;5093082;28;20031;-62
2021/05/06 10:23:42;;;;;;;0.60;0.60;;;;;;;;;;5092968;28;20099;-62
2021/05/06 10:26:08;;;;;;;1.00;0.90;;;;;;;;;;5093080;28;20039;-62
2021/05/06 10:28:34;;;;;;;1.35;0.80;;;;;;;;;;5093054;28;20390;-62
2021/05/06 10:31:01;;;;;;;0.80;0.80;;;;;;;;;;5092996;28;20024;-63
2021/05/06 10:33:27;;;;;;;0.75;0.75;;;;;;;;;;5092867;28;20102;-62
2021/05/06 10:35:53;;;;;;;0.98;0.98;;;;;;;;;;5092867;28;20024;-62
2021/05/06 10:38:19;;;;;;;0.55;0.55;;;;;;;;;;5092937;28;20022;-62
2021/05/06 10:40:44;;;;;;;0.77;0.77;;;;;;;;;;5092790;28;20085;-62
2021/05/06 10:43:30;;;;;;;1.02;1.00;;;;;;;;;;5092457;28;20035;-62
2021/05/06 10:45:57;;;;;;;1.33;1.13;;;;;;;;;;5093094;28;20028;-62
2021/05/06 10:48:22;;;;;;;7.55;3.25;;;;;;;;;;5092780;28;20039;-62
2021/05/06 10:50:50;;;;;;;3.97;1.40;;;;;;;;;;5092699;28;20028;-62
2021/05/06 10:53:26;;;;;;;5.82;1.70;;;;;;;;;;5094519;28;20016;-62
2021/05/06 10:55:56;;;;;;;2.20;0.95;;;;;;;;;;5096701;28;20035;-62
2021/05/06 10:58:21;;;;;;;2.08;1.88;;;;;;;;;;5096793;28;20012;-62
2021/05/06 11:01:09;;;;;;;6.15;2.78;;;;;;;;;;5096521;28;20134;-62
2021/05/06 11:03:35;;;;;;;1.13;1.02;;;;;;;;;;5095260;28;20445;-62
2021/05/06 11:06:01;;;;;;;3.05;1.88;;;;;;;;;;5095210;28;20390;-62
2021/05/06 11:08:30;;;;;;;1.77;1.08;;;;;;;;;;5096265;28;20490;-62
2021/05/06 11:10:56;;;;;;;5.07;2.30;;;;;;;;;;5096430;28;20024;-62
2021/05/06 11:13:22;;;;;;;21.95;8.38;;;;;;;;;;5096328;28;20498;-62
2021/05/06 11:15:48;;;;;;;18.52;4.35;;;;;;;;;;5094981;28;20485;-62
2021/05/06 11:18:32;;;;;;;3.00;2.60;;;;;;;;;;5096252;28;20024;-62
2021/05/06 11:20:58;;;;;;;9.68;4.55;;;;;;;;;;5096080;28;20039;-62
2021/05/06 11:23:25;;;;;;;9.27;4.47;;;;;;;;;;5094775;28;20381;-62
2021/05/06 11:25:52;;;;;;;1.85;1.70;;;;;;;;;;5096095;28;20039;-62
2021/05/06 11:28:17;;;;;;;5.10;2.85;;;;;;;;;;5094773;28;20020;-63
2021/05/06 11:30:43;;;;;;;1.95;1.52;;;;;;;;;;5095849;28;20032;-62
2021/05/06 11:33:20;;;;;;;8.45;4.63;;;;;;;;;;5095949;28;20057;-62
2021/05/06 11:36:08;;;;;;;4.10;2.83;;;;;;;;;;5095807;28;20060;-61
2021/05/06 11:38:37;;;;;;;4.97;2.88;;;;;;;;;;5095819;28;20158;-61
2021/05/06 11:41:08;;;;;;;1.40;1.30;;;;;;;;;;5095804;28;20110;-62
2021/05/06 11:43:35;;;;;;;4.45;2.88;;;;;;;;;;5095234;28;20047;-62
2021/05/06 11:46:04;;;;;;;1.38;1.05;;;;;;;;;;5095752;28;20028;-62
2021/05/06 11:48:34;;;;;;;1.30;1.20;;;;;;;;;;5095677;28;20502;-62
2021/05/06 11:50:59;;;;;;;3.28;2.15;;;;;;;;;;5094253;28;20023;-62
2021/05/06 11:53:25;;;;;;;1.25;1.15;;;;;;;;;;5095539;28;20020;-62
2021/05/06 11:55:50;;;;;;;1.52;1.17;;;;;;;;;;5095490;28;20065;-62
2021/05/06 11:58:28;;;;;;;1.58;1.33;;;;;;;;;;5095374;28;20047;-61
2021/05/06 12:00:53;;;;;;;1.80;1.00;;;;;;;;;;5095050;28;20024;-61
2021/05/06 12:03:19;;;;;;;3.35;1.98;;;;;;;;;;5094626;28;20024;-61
2021/05/06 12:05:56;;;;;;;1.25;0.98;;;;;;;;;;5095202;28;20044;-62
2021/05/06 12:08:23;;;;;;;1.30;0.65;;;;;;;;;;5095393;28;20036;-61
2021/05/06 12:10:48;;;;;;;0.82;0.50;;;;;;;;;;5095171;28;20111;-61
2021/05/06 12:13:16;;;;;;;0.90;0.90;;;;;;;;;;5095253;28;20047;-62
2021/05/06 12:15:41;;;;;;;3.33;1.60;;;;;;;;;;5095126;28;20103;-61
2021/05/06 12:18:16;;;;;;;2.45;1.17;;;;;;;;;;5095049;28;20051;-61
2021/05/06 12:20:51;;;;;;;1.40;1.30;;;;;;;;;;5093765;28;20024;-61
2021/05/06 12:23:17;;;;;;;0.60;0.60;;;;;;;;;;5095148;28;20031;-62
2021/05/06 12:25:42;;;;;;;7.68;1.45;;;;;;;;;;5093690;28;20378;-62
2021/05/06 12:28:09;;;;;;;1.27;0.90;;;;;;;;;;5094870;28;20047;-61
2021/05/06 12:30:35;;;;;;;1.30;0.88;;;;;;;;;;5094760;28;20024;-61
2021/05/06 12:33:00;;;;;;;1.15;0.40;;;;;;;;;;5094753;28;20073;-61
2021/05/06 12:35:26;;;;;;;1.73;1.13;;;;;;;;;;5094738;28;20022;-61
2021/05/06 12:37:55;;;;;;;2.53;1.10;;;;;;;;;;5093401;28;20035;-61
2021/05/06 12:40:20;;;;;;;2.92;1.58;;;;;;;;;;5093539;28;20016;-61
2021/05/06 12:42:46;;;;;;;1.23;1.10;;;;;;;;;;5093208;28;20512;-63
2021/05/06 12:45:16;;;;;;;3.45;1.60;;;;;;;;;;5094569;28;20028;-62
2021/05/06 12:47:45;;;;;;;0.20;0.20;;;;;;;;;;5094568;28;20123;-62
2021/05/06 12:50:11;;;;;;;0.63;0.63;;;;;;;;;;5094335;28;20020;-61
2021/05/06 12:52:37;;;;;;;2.95;1.50;;;;;;;;;;5094367;28;20024;-61
2021/05/06 12:55:21;;;;;;;2.65;1.17;;;;;;;;;;5093089;28;20020;-62
2021/05/06 12:58:03;;;;;;;1.02;0.93;;;;;;;;;;5094248;28;20048;-61
2021/05/06 13:00:29;;;;;;;1.48;1.33;;;;;;;;;;5094333;28;20077;-62
2021/05/06 13:03:04;;;;;;;1.42;0.52;;;;;;;;;;5094186;28;20028;-61
2021/05/06 13:05:32;;;;;;;0.68;0.57;;;;;;;;;;5094193;28;20116;-61
2021/05/06 13:07:58;;;;;;;2.13;1.40;;;;;;;;;;5094102;28;20103;-61
2021/05/06 13:10:27;;;;;;;4.40;2.03;;;;;;;;;;5093969;28;20151;-62
2021/05/06 13:12:52;;;;;;;2.33;1.05;;;;;;;;;;5094131;28;20023;-61
2021/05/06 13:15:18;;;;;;;3.95;1.58;;;;;;;;;;5093838;28;20016;-61
2021/05/06 13:17:44;;;;;;;0.77;0.77;;;;;;;;;;5093887;28;20095;-61
2021/05/06 13:20:27;;;;;;;1.52;1.15;;;;;;;;;;5093921;28;20546;-61
2021/05/06 13:23:01;;;;;;;0.80;0.80;;;;;;;;;;5093797;28;20024;-61
2021/05/06 13:25:43;;;;;;;1.67;1.17;;;;;;;;;;5093736;28;20028;-61
2021/05/06 13:28:10;;;;;;;2.15;0.80;;;;;;;;;;5093779;28;20061;-61
2021/05/06 13:30:35;;;;;;;2.20;1.50;;;;;;;;;;5093614;28;20489;-62
2021/05/06 13:33:21;;;;;;;2.72;1.45;;;;;;;;;;5092422;28;20024;-61
2021/05/06 13:36:05;;;;;;;0.60;0.60;;;;;;;;;;5093567;28;20028;-61
2021/05/06 13:38:49;;;;;;;0.75;0.75;;;;;;;;;;5093546;28;20484;-62
2021/05/06 13:41:15;;;;;;;2.28;0.90;;;;;;;;;;5093469;28;20157;-61
2021/05/06 13:43:41;;;;;;;7.45;2.47;;;;;;;;;;5091728;28;20138;-61
2021/05/06 13:46:13;;;;;;;1.67;0.80;;;;;;;;;;5093453;28;20032;-61
2021/05/06 13:48:38;;;;;;;1.20;1.02;;;;;;;;;;5093490;28;20050;-61
2021/05/06 13:51:05;;;;;;;5.63;2.42;;;;;;;;;;5092890;28;20469;-61
2021/05/06 13:53:30;;;;;;;0.98;0.82;;;;;;;;;;5093480;28;20413;-61
2021/05/06 13:55:56;;;;;;;0.80;0.75;;;;;;;;;;5093279;28;20016;-61
2021/05/06 13:58:21;;;;;;;1.73;0.90;;;;;;;;;;5092095;28;20035;-62
2021/05/06 14:00:47;;;;;;;1.20;0.85;;;;;;;;;;5091988;28;20031;-61
2021/05/06 14:03:12;;;;;;;0.88;0.88;;;;;;;;;;5093227;28;20028;-61
2021/05/06 14:05:37;;;;;;;0.60;0.52;;;;;;;;;;5093248;28;20016;-62
2021/05/06 14:08:03;;;;;;;2.38;1.38;;;;;;;;;;5093183;28;20032;-61
2021/05/06 14:10:28;;;;;;;2.55;1.58;;;;;;;;;;5093149;28;20058;-62
2021/05/06 14:12:54;;;;;;;2.40;1.35;;;;;;;;;;5093235;28;20078;-62
2021/05/06 14:15:19;;;;;;;0.95;0.95;;;;;;;;;;5093116;28;20016;-62
2021/05/06 14:17:45;;;;;;;2.55;0.63;;;;;;;;;;5093027;28;20028;-62
2021/05/06 14:20:11;;;;;;;3.17;2.50;;;;;;;;;;5092552;28;20450;-62
2021/05/06 14:22:36;;;;;;;1.17;1.08;;;;;;;;;;5093478;28;20038;-62
2021/05/06 14:25:02;;;;;;;1.88;1.45;;;;;;;;;;5092152;28;20020;-62
2021/05/06 14:27:27;;;;;;;1.45;1.30;;;;;;;;;;5093264;28;20055;-61
2021/05/06 14:29:53;;;;;;;6.10;1.17;;;;;;;;;;5096758;28;20024;-61
2021/05/06 14:32:18;;;;;;;1.88;0.77;;;;;;;;;;5096674;28;20027;-61
2021/05/06 14:34:44;;;;;;;2.22;1.30;;;;;;;;;;5096235;28;20012;-61
2021/05/06 14:37:09;;;;;;;2.03;1.50;;;;;;;;;;5096426;28;20027;-60
2021/05/06 14:39:35;;;;;;;2.42;1.25;;;;;;;;;;5097688;28;20008;-61
2021/05/06 14:42:00;;;;;;;1.30;1.20;;;;;;;;;;5097344;28;20362;-61
2021/05/06 14:44:26;;;;;;;3.25;1.52;;;;;;;;;;5096367;28;20055;-61
2021/05/06 14:46:52;;;;;;;0.98;0.73;;;;;;;;;;5097129;28;20060;-61
2021/05/06 14:49:18;;;;;;;2.70;1.55;;;;;;;;;;5097218;28;20062;-61
2021/05/06 14:51:44;;;;;;;1.00;0.60;;;;;;;;;;5097045;28;20024;-61
2021/05/06 14:54:09;;;;;;;1.92;0.93;;;;;;;;;;5096713;28;20374;-61
2021/05/06 14:56:35;;;;;;;1.20;1.10;;;;;;;;;;5096675;28;20028;-61
2021/05/06 14:59:00;;;;;;;1.70;1.08;;;;;;;;;;5096662;28;20027;-62
2021/05/06 15:01:27;;;;;;;2.35;1.05;;;;;;;;;;5095329;28;20028;-60
2021/05/06 15:03:52;;;;;;;1.05;0.93;;;;;;;;;;5096548;28;20020;-60
2021/05/06 15:06:18;;;;;;;1.48;1.20;;;;;;;;;;5096536;28;20081;-61
2021/05/06 15:08:44;;;;;;;2.30;1.50;;;;;;;;;;5096450;28;20103;-60
2021/05/06 15:11:10;;;;;;;1.17;1.08;;;;;;;;;;5094992;28;20035;-60
2021/05/06 15:13:35;;;;;;;1.35;0.68;;;;;;;;;;5096376;28;20359;-60
2021/05/06 15:16:01;;;;;;;1.30;0.90;;;;;;;;;;5096405;28;20390;-60
2021/05/06 15:18:26;;;;;;;0.60;0.60;;;;;;;;;;5096324;28;20016;-60
2021/05/06 15:20:52;;;;;;;0.80;0.80;;;;;;;;;;5096224;28;20139;-60
2021/05/06 15:23:18;;;;;;;2.10;1.27;;;;;;;;;;5095783;28;20020;-60
2021/05/06 15:25:43;;;;;;;1.08;1.00;;;;;;;;;;5094135;28;20032;-60
2021/05/06 15:28:09;;;;;;;1.20;1.10;;;;;;;;;;5094442;28;20020;-61
2021/05/06 15:30:35;;;;;;;1.77;1.17;;;;;;;;;;5094395;28;20058;-61
2021/05/06 15:33:01;;;;;;;1.42;1.30;;;;;;;;;;5096124;28;20502;-60
2021/05/06 15:35:27;;;;;;;2.92;1.58;;;;;;;;;;5095653;28;20389;-60
2021/05/06 15:37:53;;;;;;;3.10;1.42;;;;;;;;;;5094981;28;20020;-61
2021/05/06 15:40:19;;;;;;;2.10;0.93;;;;;;;;;;5094308;28;20123;-61
2021/05/06 15:42:46;;;;;;;1.90;1.20;;;;;;;;;;5095319;28;20440;-60
2021/05/06 15:45:12;;;;;;;1.88;0.98;;;;;;;;;;5095567;28;20036;-60
2021/05/06 15:47:37;;;;;;;2.08;1.52;;;;;;;;;;5095640;28;20031;-60
2021/05/06 15:50:05;;;;;;;1.77;1.30;;;;;;;;;;5095557;28;20032;-60
2021/05/06 15:52:30;;;;;;;3.90;1.63;;;;;;;;;;5095476;28;20104;-60
2021/05/06 15:54:57;;;;;;;1.50;1.20;;;;;;;;;;5093994;28;20054;-61
2021/05/06 15:57:23;;;;;;;2.72;1.15;;;;;;;;;;5095368;28;20023;-60
2021/05/06 15:59:49;;;;;;;3.58;1.33;;;;;;;;;;5095567;28;20078;-60
2021/05/06 16:02:16;;;;;;;1.48;0.90;;;;;;;;;;5094019;28;20012;-60
2021/05/06 16:04:41;;;;;;;1.33;1.20;;;;;;;;;;5095334;28;20555;-60
2021/05/06 16:07:07;;;;;;;2.03;1.48;;;;;;;;;;5095273;28;20112;-60
2021/05/06 16:09:32;;;;;;;1.25;1.15;;;;;;;;;;5094949;28;20118;-61
2021/05/06 16:11:58;;;;;;;2.70;1.40;;;;;;;;;;5095084;28;20111;-61
2021/05/06 16:14:23;;;;;;;1.63;1.10;;;;;;;;;;5095203;28;20024;-61
2021/05/06 16:16:49;;;;;;;1.73;1.38;;;;;;;;;;5095153;28;20020;-61
2021/05/06 16:19:15;;;;;;;1.20;1.10;;;;;;;;;;5095052;28;20020;-61
2021/05/06 16:21:41;;;;;;;1.35;1.17;;;;;;;;;;5093732;28;20035;-62
2021/05/06 16:24:07;;;;;;;3.95;1.30;;;;;;;;;;5094230;28;20115;-63
2021/05/06 16:26:34;;;;;;;2.55;1.30;;;;;;;;;;5094969;28;20459;-63
2021/05/06 16:28:59;;;;;;;3.95;1.80;;;;;;;;;;5094273;28;20028;-63
2021/05/06 16:31:25;;;;;;;2.20;2.00;;;;;;;;;;5094443;28;20394;-63
2021/05/06 16:33:57;;;;;;;1.73;1.27;;;;;;;;;;5094778;28;20024;-63
2021/05/06 16:42:01;;;;;;;;;;;;;;;;;;5094448;28;20055;-63
2021/05/06 16:44:30;;;;;;;3.55;1.10;;;;;;;;;;5093508;28;19915;-63
2021/05/06 16:46:58;;;;;;;0.98;0.80;;;;;;;;;;5094379;28;20039;-63
2021/05/06 16:49:25;;;;;;;1.20;1.10;;;;;;;;;;5093468;28;20038;-63
2021/05/06 16:51:50;;;;;;;1.55;1.10;;;;;;;;;;5093873;28;20446;-64
2021/05/06 16:54:16;;;;;;;3.10;1.63;;;;;;;;;;5093843;28;20095;-63
2021/05/06 16:56:42;;;;;;;2.40;1.75;;;;;;;;;;5094080;28;20085;-62
2021/05/06 16:59:08;;;;;;;1.98;1.35;;;;;;;;;;5094120;28;20012;-62
2021/05/06 17:01:36;;;;;;;2.33;1.70;;;;;;;;;;5093503;28;20032;-62
2021/05/06 17:04:01;;;;;;;2.08;1.50;;;;;;;;;;5093870;28;20027;-62
2021/05/06 17:06:27;;;;;;;2.08;1.88;;;;;;;;;;5094145;28;20020;-62
2021/05/06 17:08:53;;;;;;;1.55;1.45;;;;;;;;;;5085038;28;20020;-63
2021/05/06 17:11:19;;;;;;;1.80;1.45;;;;;;;;;;5090244;28;20105;-62
2021/05/06 17:13:44;;;;;;;2.47;1.85;;;;;;;;;;5088490;28;20440;-62
2021/05/06 17:16:10;;;;;;;4.28;3.13;;;;;;;;;;5089629;28;20028;-62
2021/05/06 17:18:35;;;;;;;4.32;2.78;;;;;;;;;;5087738;28;20016;-62
2021/05/06 17:21:01;;;;;;;2.88;1.80;;;;;;;;;;5089460;28;20051;-62
2021/05/06 17:23:27;;;;;;;3.55;2.50;;;;;;;;;;5089371;28;20016;-62
2021/05/06 17:25:53;;;;;;;4.50;2.08;;;;;;;;;;5088836;28;20036;-63
2021/05/06 17:28:19;;;;;;;2.92;2.08;;;;;;;;;;5089451;28;20016;-62
2021/05/06 17:30:44;;;;;;;6.85;2.40;;;;;;;;;;5088864;28;20448;-62
2021/05/06 17:33:10;;;;;;;5.47;2.65;;;;;;;;;;5089313;28;20397;-62
2021/05/06 17:35:35;;;;;;;4.32;2.15;;;;;;;;;;5089328;28;20032;-62
2021/05/06 17:38:03;;;;;;;3.63;2.65;;;;;;;;;;5089086;28;20016;-62
2021/05/06 17:40:29;;;;;;;4.78;3.20;;;;;;;;;;5088995;28;20810;-62
2021/05/06 17:42:54;;;;;;;5.15;2.97;;;;;;;;;;5089591;28;20053;-63
2021/05/06 17:45:20;;;;;;;2.72;2.47;;;;;;;;;;5089022;28;20073;-62
2021/05/06 17:47:47;;;;;;;6.07;4.15;;;;;;;;;;5087486;28;20063;-62
2021/05/06 17:50:13;;;;;;;19.70;8.52;;;;;;;;;;5085475;28;20036;-62
2021/05/06 17:52:39;;;;;;;22.17;12.80;;;;;;;;;;5089780;28;20073;-62
2021/05/06 17:55:05;;;;;;;53.53;35.35;;;;;;;;;;5089712;28;20492;-62
2021/05/06 17:57:30;;;;;;;27.33;19.58;;;;;;;;;;5089616;28;20016;-62
2021/05/06 17:59:56;;;;;;;24.92;15.10;;;;;;;;;;5089390;28;20028;-62
2021/05/06 18:02:22;;;;;;;29.77;16.02;;;;;;;;;;5087582;28;20028;-62
2021/05/06 18:04:48;;;;;;;25.60;12.82;;;;;;;;;;5089622;28;20032;-63
2021/05/06 18:07:14;;;;;;;30.45;14.32;;;;;;;;;;5089706;28;20023;-62
2021/05/06 18:09:55;;;;;;;44.88;21.85;;;;;;;;;;5089214;28;20398;-63
2021/05/06 18:12:20;;;;;;;65.28;32.05;;;;;;;;;;5089745;28;20490;-62
2021/05/06 18:14:46;;;;;;;43.25;20.48;;;;;;;;;;5089570;28;20042;-63
2021/05/06 18:17:11;;;;;;;32.55;15.60;;;;;;;;;;5089362;28;20058;-62
2021/05/06 18:19:38;;;;;;;24.02;14.93;;;;;;;;;;5089190;28;20028;-62
2021/05/06 18:22:04;;;;;;;32.33;18.45;;;;;;;;;;5089127;28;20410;-63